Time;durP1;ratioP1;P1;durP2;ratioP2;P2;SDS_P1;SDS_P2;PMS_P1;PMS_P2;Temp;Humidity;BMP_temperature;BMP_pressure;BME280_temperature;BME280_humidity;BME280_pressure;Samples;Min_cycle;Max_cycle;Signal;HPM_P1;HPM_P2
2023/08/21 00:01:03;;;;;;;6.37;3.65;;;;;;;25.59;64.40;99966.59;4450278;32;33821;-82
2023/08/21 00:03:33;;;;;;;6.87;3.90;;;;;;;25.61;64.62;99973.50;4461765;32;34021;-82
2023/08/21 00:06:02;;;;;;;6.65;4.22;;;;;;;25.58;65.02;99968.41;4448629;32;34109;-82
2023/08/21 00:08:31;;;;;;;8.10;3.87;;;;;;;25.71;64.55;99968.41;4451793;32;33505;-80
2023/08/21 00:11:01;;;;;;;6.70;3.92;;;;;;;25.79;64.41;99971.34;4451476;32;34474;-82
2023/08/21 00:13:29;;;;;;;5.78;3.17;;;;;;;25.57;65.18;99969.38;4448605;32;33643;-82
2023/08/21 00:16:00;;;;;;;5.70;3.60;;;;;;;25.57;65.37;99971.19;4457164;32;33513;-81
2023/08/21 00:18:29;;;;;;;5.78;2.92;;;;;;;25.71;64.83;99981.69;4458721;32;33852;-82
2023/08/21 00:20:58;;;;;;;6.68;3.80;;;;;;;25.66;65.12;99973.16;4446748;32;34458;-80
2023/08/21 00:23:27;;;;;;;6.57;3.30;;;;;;;25.55;65.34;99974.78;4456893;32;33721;-81
2023/08/21 00:25:56;;;;;;;5.80;3.40;;;;;;;25.57;65.29;99976.50;4444164;32;34222;-81
2023/08/21 00:28:24;;;;;;;5.68;3.37;;;;;;;25.30;66.18;99969.53;4450233;32;33298;-81
2023/08/21 00:31:02;;;;;;;6.00;3.50;;;;;;;25.44;65.63;99974.72;4444298;32;33718;-81
2023/08/21 00:33:32;;;;;;;5.75;3.37;;;;;;;25.47;65.48;99969.19;4448369;32;33909;-81
2023/08/21 00:36:01;;;;;;;6.30;3.70;;;;;;;25.39;65.64;99970.66;4448349;32;33888;-81
2023/08/21 00:38:29;;;;;;;5.90;3.60;;;;;;;25.62;65.04;99974.38;4434332;32;33289;-82
2023/08/21 00:41:00;;;;;;;6.25;3.70;;;;;;;25.67;63.89;99980.19;4443624;32;33352;-81
2023/08/21 00:43:28;;;;;;;6.32;3.53;;;;;;;25.34;65.44;99971.00;4454187;32;33946;-81
2023/08/21 00:45:57;;;;;;;5.78;3.33;;;;;;;25.44;65.28;99980.03;4448224;32;34451;-81
2023/08/21 00:48:27;;;;;;;6.32;4.10;;;;;;;25.41;65.36;99979.38;4434969;32;34225;-81
2023/08/21 00:50:56;;;;;;;7.27;4.23;;;;;;;25.33;65.85;99978.13;4446021;32;35527;-81
2023/08/21 00:53:26;;;;;;;5.68;3.58;;;;;;;25.37;65.62;99981.41;4445855;32;33942;-82
2023/08/21 00:55:55;;;;;;;6.40;3.85;;;;;;;25.17;66.53;99987.22;4449193;32;34362;-81
2023/08/21 00:58:24;;;;;;;6.45;3.62;;;;;;;25.41;65.86;99982.03;4434969;32;33422;-81
2023/08/21 01:00:53;;;;;;;5.50;3.65;;;;;;;25.49;65.17;99988.53;4441986;32;33668;-82
2023/08/21 01:03:22;;;;;;;6.55;3.55;;;;;;;25.44;65.24;99984.47;4432624;32;33712;-81
2023/08/21 01:05:53;;;;;;;4.35;2.87;;;;;;;25.41;65.53;99984.69;4433332;32;34004;-81
2023/08/21 01:08:27;;;;;;;4.53;3.12;;;;;;;25.31;65.66;99987.16;4437738;32;33215;-80
2023/08/21 01:11:00;;;;;;;5.15;3.10;;;;;;;25.39;65.35;99983.94;4453139;32;33659;-82
2023/08/21 01:13:41;;;;;;;5.35;3.05;;;;;;;25.44;64.84;99980.03;4448223;32;34699;-81
2023/08/21 01:16:11;;;;;;;5.55;3.30;;;;;;;25.38;65.21;99983.09;4448109;32;33931;-82
2023/08/21 01:18:44;;;;;;;6.05;3.15;;;;;;;25.25;65.62;99985.78;4447005;32;33239;-82
2023/08/21 01:21:14;;;;;;;6.40;3.15;;;;;;;25.29;65.58;99991.72;4448762;32;33622;-81
2023/08/21 01:23:45;;;;;;;6.15;3.80;;;;;;;25.38;65.24;99995.53;4442803;32;34343;-81
2023/08/21 01:26:14;;;;;;;;;;;;;;;25.40;65.25;99997.12;4440509;32;33704;-81
2023/08/21 01:28:43;;;;;;;6.00;3.08;;;;;;;25.26;65.48;99998.09;4445694;32;34015;-81
2023/08/21 01:31:16;;;;;;;5.40;3.40;;;;;;;25.20;65.70;99992.34;4445691;32;34768;-82
2023/08/21 01:33:47;;;;;;;6.37;3.55;;;;;;;25.10;66.20;100000.06;4445819;32;33841;-82
2023/08/21 01:36:16;;;;;;;4.97;2.92;;;;;;;25.16;65.82;99993.50;4450430;32;33752;-82
2023/08/21 01:38:46;;;;;;;5.80;3.10;;;;;;;25.08;66.04;99994.88;4445013;32;33371;-82
2023/08/21 01:41:15;;;;;;;6.60;3.75;;;;;;;25.21;65.39;99991.41;4446315;32;33069;-81
2023/08/21 01:43:44;;;;;;;4.93;3.00;;;;;;;25.27;65.24;99998.94;4446569;32;33527;-82
2023/08/21 01:46:13;;;;;;;5.25;2.87;;;;;;;25.22;65.31;99995.75;4445108;32;33887;-81
2023/08/21 01:48:42;;;;;;;5.30;2.90;;;;;;;25.20;65.30;99998.53;4448140;32;32531;-81
2023/08/21 01:51:11;;;;;;;5.10;3.10;;;;;;;25.06;65.63;99996.78;4440858;32;33835;-81
2023/08/21 01:53:39;;;;;;;5.40;3.30;;;;;;;25.05;65.78;100000.37;4431594;32;33529;-82
2023/08/21 01:56:10;;;;;;;5.07;2.95;;;;;;;24.95;66.13;100012.59;4445926;32;34530;-82
2023/08/21 01:58:39;;;;;;;6.93;3.90;;;;;;;24.89;66.29;100013.00;4447148;32;32970;-82
2023/08/21 02:01:08;;;;;;;5.40;3.30;;;;;;;24.96;66.09;100009.00;4452484;32;34409;-82
2023/08/21 02:03:41;;;;;;;7.95;3.75;;;;;;;24.83;66.87;100013.41;4448223;32;34186;-81
2023/08/21 02:06:10;;;;;;;7.47;3.85;;;;;;;24.67;67.58;100005.66;4447870;32;34542;-81
2023/08/21 02:08:40;;;;;;;5.60;3.00;;;;;;;24.85;67.21;100012.34;4448259;32;32923;-81
2023/08/21 02:11:09;;;;;;;6.18;3.35;;;;;;;24.90;66.83;100012.06;4449447;32;33812;-82
2023/08/21 02:13:39;;;;;;;5.85;3.65;;;;;;;24.46;68.57;100013.22;4452069;32;33817;-82
2023/08/21 02:16:08;;;;;;;5.80;3.03;;;;;;;24.63;67.94;100018.25;4453279;32;33956;-81
2023/08/21 02:18:37;;;;;;;6.10;3.53;;;;;;;24.59;68.08;100013.25;4447696;32;34322;-81
2023/08/21 02:21:06;;;;;;;6.05;3.65;;;;;;;24.66;67.37;100015.38;4447213;32;34291;-81
2023/08/21 02:23:34;;;;;;;5.53;3.40;;;;;;;24.53;67.89;100009.22;4446730;32;33973;-81
2023/08/21 02:26:03;;;;;;;5.80;3.83;;;;;;;24.51;67.67;100008.47;4445091;32;34498;-81
2023/08/21 02:28:32;;;;;;;5.97;3.20;;;;;;;24.53;67.30;100003.91;4451202;32;33714;-81
2023/08/21 02:31:02;;;;;;;5.90;3.25;;;;;;;24.64;66.90;100001.38;4444840;32;33941;-81
2023/08/21 02:33:34;;;;;;;7.03;3.50;;;;;;;24.59;67.08;100006.13;4437571;32;34849;-81
2023/08/21 02:36:03;;;;;;;5.80;3.03;;;;;;;24.47;67.66;100005.16;4439001;32;33916;-81
2023/08/21 02:38:32;;;;;;;8.20;3.90;;;;;;;24.36;68.09;100006.78;4446933;32;34050;-82
2023/08/21 02:41:01;;;;;;;8.10;3.70;;;;;;;24.01;69.28;100004.59;4450820;32;32633;-81
2023/08/21 02:43:29;;;;;;;4.80;3.08;;;;;;;24.30;68.20;100012.47;4446390;32;37075;-81
2023/08/21 02:45:58;;;;;;;4.25;2.85;;;;;;;24.31;68.09;100009.75;4444201;32;33785;-81
2023/08/21 02:48:32;;;;;;;4.20;2.30;;;;;;;24.52;66.92;100012.81;4446437;32;31583;-82
2023/08/21 02:51:02;;;;;;;5.62;3.75;;;;;;;24.47;67.03;100005.16;4446391;32;33610;-82
2023/08/21 02:53:35;;;;;;;6.53;3.30;;;;;;;24.36;67.82;100007.63;4445511;32;34116;-81
2023/08/21 02:56:04;;;;;;;5.35;2.72;;;;;;;24.13;68.70;100009.13;4450941;32;33483;-82
2023/08/21 02:58:33;;;;;;;5.87;3.42;;;;;;;24.35;67.81;100002.41;4446987;32;33457;-81
2023/08/21 03:01:02;;;;;;;5.85;3.33;;;;;;;24.57;66.65;99999.22;4450739;32;33912;-81
2023/08/21 03:03:33;;;;;;;4.90;3.20;;;;;;;24.34;67.87;100003.37;4439366;32;33699;-82
2023/08/21 03:06:02;;;;;;;6.20;3.47;;;;;;;24.20;68.57;100001.62;4426273;32;34486;-81
2023/08/21 03:08:32;;;;;;;6.07;3.50;;;;;;;24.20;68.41;100002.47;4452574;32;33447;-81
2023/08/21 03:11:01;;;;;;;8.13;4.10;;;;;;;24.25;68.31;100002.19;4446730;32;34783;-82
2023/08/21 03:13:30;;;;;;;5.87;3.50;;;;;;;24.31;68.22;100000.91;4455271;32;33683;-81
2023/08/21 03:15:58;;;;;;;5.55;3.42;;;;;;;24.43;67.30;99997.50;4458443;32;34074;-81
2023/08/21 03:18:42;;;;;;;5.75;3.28;;;;;;;24.30;67.97;100000.06;4449217;32;33578;-81
2023/08/21 03:21:11;;;;;;;5.28;3.37;;;;;;;24.35;67.95;100000.63;4448503;32;33935;-81
2023/08/21 03:23:40;;;;;;;6.22;3.58;;;;;;;24.31;68.02;100004.44;4454756;32;33894;-81
2023/08/21 03:26:09;;;;;;;4.87;3.70;;;;;;;24.37;67.75;100004.03;4447124;32;33707;-81
2023/08/21 03:28:38;;;;;;;4.43;2.70;;;;;;;24.12;68.46;100004.78;4445898;32;33445;-82
2023/08/21 03:31:07;;;;;;;5.82;3.50;;;;;;;24.31;67.68;100007.09;4444832;32;33854;-81
2023/08/21 03:33:38;;;;;;;5.18;3.25;;;;;;;24.16;68.37;100013.37;4449596;32;33158;-81
2023/08/21 03:36:08;;;;;;;5.45;3.35;;;;;;;24.28;67.80;100016.09;4450405;32;32674;-81
2023/08/21 03:38:36;;;;;;;5.97;3.55;;;;;;;24.07;68.44;100006.87;4442978;32;33065;-81
2023/08/21 03:41:08;;;;;;;5.05;2.90;;;;;;;24.14;68.13;100013.50;4445011;32;34318;-81
2023/08/21 03:43:37;;;;;;;3.95;2.53;;;;;;;24.18;68.24;100014.13;4448112;32;34019;-81
2023/08/21 03:46:06;;;;;;;4.93;3.10;;;;;;;24.04;68.84;100023.81;4444730;32;34242;-82
2023/08/21 03:48:34;;;;;;;5.37;3.08;;;;;;;24.04;68.99;100012.34;4449898;32;33371;-81
2023/08/21 03:51:05;;;;;;;4.80;2.70;;;;;;;24.25;67.67;100018.09;4452619;32;34440;-82
2023/08/21 03:53:34;;;;;;;4.68;2.70;;;;;;;23.98;68.75;100018.91;4448613;32;33084;-82
2023/08/21 03:56:03;;;;;;;4.47;2.78;;;;;;;24.11;68.34;100012.81;4446224;32;34332;-82
2023/08/21 03:58:33;;;;;;;;;;;;;;;24.02;68.71;100016.94;4444690;32;32710;-82
2023/08/21 04:01:02;;;;;;;5.70;3.05;;;;;;;24.12;68.43;100017.19;4447552;32;34102;-82
2023/08/21 04:03:31;;;;;;;4.50;3.08;;;;;;;24.18;68.40;100017.63;4447499;32;33288;-82
2023/08/21 04:06:00;;;;;;;6.37;3.05;;;;;;;24.09;68.68;100012.94;4446635;32;33810;-81
2023/08/21 04:08:30;;;;;;;7.95;3.97;;;;;;;24.23;68.45;100020.81;4447425;32;32892;-81
2023/08/21 04:11:00;;;;;;;5.65;3.20;;;;;;;23.85;70.11;100010.06;4448405;32;33842;-81
2023/08/21 04:13:29;;;;;;;6.30;3.28;;;;;;;23.83;70.42;100014.59;4445589;32;34062;-82
2023/08/21 04:15:58;;;;;;;6.75;3.60;;;;;;;24.03;69.40;100018.62;4449733;32;34277;-81
2023/08/21 04:18:27;;;;;;;6.35;3.70;;;;;;;24.25;68.49;100012.78;4447671;32;33265;-81
2023/08/21 04:21:09;;;;;;;5.97;3.53;;;;;;;24.19;68.73;100018.50;4447057;32;33977;-81
2023/08/21 04:23:39;;;;;;;5.87;2.78;;;;;;;24.32;68.34;100015.88;4447850;32;33942;-81
2023/08/21 04:26:08;;;;;;;6.57;3.42;;;;;;;24.25;68.65;100013.63;4447828;32;32833;-81
2023/08/21 04:28:37;;;;;;;6.35;3.30;;;;;;;24.12;69.08;100018.03;4449096;32;33966;-81
2023/08/21 04:31:06;;;;;;;5.20;3.10;;;;;;;24.33;68.68;100022.88;4453098;32;34167;-82
2023/08/21 04:33:36;;;;;;;5.82;3.12;;;;;;;24.57;67.30;100018.66;4448670;32;33894;-81
2023/08/21 04:36:05;;;;;;;4.97;3.15;;;;;;;24.47;67.70;100022.88;4448488;32;34429;-81
2023/08/21 04:38:34;;;;;;;5.43;3.00;;;;;;;24.20;68.35;100031.62;4449077;32;32925;-81
2023/08/21 04:41:08;;;;;;;5.70;3.30;;;;;;;24.35;68.21;100032.44;4448225;32;35184;-81
2023/08/21 04:43:38;;;;;;;6.45;2.58;;;;;;;24.23;68.04;100034.06;4454463;32;33989;-82
2023/08/21 04:46:07;;;;;;;5.10;3.13;;;;;;;24.27;68.12;100034.75;4448413;32;33615;-81
2023/08/21 04:48:37;;;;;;;4.20;2.35;;;;;;;24.30;68.42;100037.19;4448399;32;33335;-81
2023/08/21 04:51:05;;;;;;;5.28;2.87;;;;;;;24.35;68.50;100039.53;4444966;32;34200;-82
2023/08/21 04:53:34;;;;;;;4.95;3.10;;;;;;;24.56;67.43;100030.22;4446192;32;34149;-82
2023/08/21 04:56:04;;;;;;;5.43;3.15;;;;;;;24.50;67.78;100038.59;4447648;32;34135;-82
2023/08/21 04:58:34;;;;;;;5.12;2.95;;;;;;;24.63;67.14;100042.12;4442663;32;33658;-81
2023/08/21 05:01:05;;;;;;;7.40;4.22;;;;;;;24.74;67.24;100043.22;4447564;32;34072;-82
2023/08/21 05:03:36;;;;;;;5.53;3.53;;;;;;;24.89;66.61;100044.88;4439386;32;34004;-81
2023/08/21 05:06:06;;;;;;;5.82;2.95;;;;;;;24.92;66.57;100047.31;4423593;32;33675;-81
2023/08/21 05:08:35;;;;;;;5.70;2.97;;;;;;;24.99;66.12;100053.91;4423069;32;34157;-81
2023/08/21 05:11:04;;;;;;;6.23;3.23;;;;;;;24.97;66.57;100052.31;4422406;32;34463;-82
2023/08/21 05:13:35;;;;;;;6.18;3.33;;;;;;;24.96;66.56;100053.25;4415405;32;33493;-82
2023/08/21 05:16:04;;;;;;;;;;;;;;;25.20;65.97;100045.44;4417403;32;34212;-80
2023/08/21 05:18:34;;;;;;;5.30;3.00;;;;;;;25.32;65.15;100044.59;4413877;32;35928;-82
2023/08/21 05:21:04;;;;;;;6.22;3.20;;;;;;;25.39;64.94;100045.88;4413336;32;34206;-81
2023/08/21 05:23:32;;;;;;;7.18;3.28;;;;;;;25.84;63.46;100042.78;4420414;32;33602;-82
2023/08/21 05:26:02;;;;;;;4.80;3.15;;;;;;;26.30;62.14;100047.47;4416046;32;34444;-81
2023/08/21 05:28:30;;;;;;;4.85;2.95;;;;;;;26.87;60.48;100048.59;4414997;32;33127;-81
2023/08/21 05:31:01;;;;;;;5.72;3.28;;;;;;;27.57;57.73;100053.87;4413541;32;34731;-81
2023/08/21 05:33:31;;;;;;;4.68;3.03;;;;;;;28.08;55.83;100056.06;4414289;32;34038;-82
2023/08/21 05:36:00;;;;;;;5.35;2.83;;;;;;;28.60;54.56;100060.78;4412806;32;35117;-82
2023/08/21 05:38:28;;;;;;;5.00;2.92;;;;;;;28.99;53.14;100055.75;4420565;32;33501;-82
2023/08/21 05:40:58;;;;;;;5.20;2.83;;;;;;;29.13;53.65;100058.16;4415497;32;33891;-82
2023/08/21 05:43:26;;;;;;;4.30;2.42;;;;;;;29.34;51.88;100056.31;4415333;32;34869;-82
2023/08/21 05:45:55;;;;;;;4.65;2.75;;;;;;;29.39;52.29;100066.63;4411584;32;34307;-82
2023/08/21 05:48:26;;;;;;;5.28;3.05;;;;;;;29.44;52.69;100058.19;4415673;32;34117;-82
2023/08/21 05:50:55;;;;;;;5.00;2.70;;;;;;;29.47;52.76;100063.28;4421028;32;33002;-82
2023/08/21 05:53:24;;;;;;;4.57;2.75;;;;;;;29.39;52.58;100071.13;4413871;32;34599;-82
2023/08/21 05:55:53;;;;;;;7.60;3.22;;;;;;;29.15;53.33;100072.22;4413250;32;34030;-81
2023/08/21 05:58:22;;;;;;;5.60;2.50;;;;;;;28.91;54.06;100078.63;4412822;32;33092;-82
2023/08/21 06:00:52;;;;;;;5.27;3.17;;;;;;;28.73;54.98;100077.50;4415872;32;33615;-81
2023/08/21 06:03:21;;;;;;;3.80;2.70;;;;;;;28.54;55.32;100074.63;4420756;32;33875;-81
2023/08/21 06:05:52;;;;;;;5.62;2.83;;;;;;;28.35;56.38;100075.28;4441148;32;33958;-82
2023/08/21 06:08:21;;;;;;;4.65;2.95;;;;;;;28.16;57.31;100076.78;4444890;32;32674;-81
2023/08/21 06:10:52;;;;;;;4.28;2.67;;;;;;;28.26;56.53;100076.88;4444815;32;35599;-81
2023/08/21 06:13:21;;;;;;;;;;;;;;;28.20;57.23;100075.56;4444172;32;33932;-82
2023/08/21 06:15:50;;;;;;;4.80;2.55;;;;;;;28.08;58.13;100076.53;4445349;32;34093;-82
2023/08/21 06:18:19;;;;;;;5.03;2.62;;;;;;;28.20;57.05;100070.22;4450049;32;33183;-81
2023/08/21 06:20:48;;;;;;;4.53;2.78;;;;;;;28.05;58.10;100074.97;4445463;32;33854;-81
2023/08/21 06:23:18;;;;;;;5.57;2.92;;;;;;;28.20;57.35;100077.37;4446242;32;33910;-81
2023/08/21 06:25:48;;;;;;;4.05;2.55;;;;;;;28.18;56.91;100074.81;4442383;32;33969;-81
2023/08/21 06:28:17;;;;;;;;;;;;;;;28.30;56.54;100079.16;4448496;32;32972;-82
2023/08/21 06:30:46;;;;;;;4.45;2.42;;;;;;;27.78;56.90;100079.78;4453093;32;34173;-81
2023/08/21 06:33:15;;;;;;;5.43;3.33;;;;;;;28.32;55.38;100079.06;4447405;32;34139;-81
2023/08/21 06:35:44;;;;;;;5.90;2.95;;;;;;;28.41;55.37;100083.63;4444128;32;33597;-81
2023/08/21 06:38:13;;;;;;;5.20;3.15;;;;;;;28.53;55.45;100080.97;4446618;32;33583;-81
2023/08/21 06:40:43;;;;;;;4.32;2.60;;;;;;;28.73;54.91;100085.53;4450170;32;33899;-81
2023/08/21 06:43:12;;;;;;;6.20;3.33;;;;;;;28.95;53.92;100081.91;4457477;32;33894;-81
2023/08/21 06:45:43;;;;;;;4.43;2.47;;;;;;;28.73;55.20;100088.19;4447234;32;33791;-82
2023/08/21 06:48:12;;;;;;;5.60;3.58;;;;;;;28.81;55.06;100093.72;4448525;32;32527;-82
2023/08/21 06:50:43;;;;;;;6.00;2.87;;;;;;;28.70;55.99;100089.25;4448426;32;33652;-82
2023/08/21 06:53:12;;;;;;;3.75;2.15;;;;;;;28.91;55.37;100085.78;4448375;32;34881;-81
2023/08/21 06:55:41;;;;;;;5.20;2.85;;;;;;;29.04;54.96;100088.28;4450302;32;33595;-82
2023/08/21 06:58:11;;;;;;;4.95;2.90;;;;;;;29.11;54.63;100082.31;4454339;32;33327;-81
2023/08/21 07:00:40;;;;;;;4.97;3.10;;;;;;;29.13;54.42;100088.37;4450041;32;32897;-81
2023/08/21 07:03:09;;;;;;;5.85;3.03;;;;;;;29.01;54.83;100081.37;4451320;32;34587;-81
2023/08/21 07:05:38;;;;;;;3.50;1.95;;;;;;;29.03;55.19;100083.91;4448127;32;34066;-81
2023/08/21 07:08:08;;;;;;;5.43;3.07;;;;;;;29.28;53.03;100078.19;4445166;32;33280;-81
2023/08/21 07:10:37;;;;;;;4.75;2.55;;;;;;;29.07;53.73;100083.56;4453951;32;34551;-82
2023/08/21 07:13:06;;;;;;;3.73;2.33;;;;;;;29.15;52.97;100082.91;4443867;32;34028;-81
2023/08/21 07:15:37;;;;;;;5.10;2.70;;;;;;;29.34;53.44;100082.19;4446795;32;34628;-81
2023/08/21 07:18:06;;;;;;;5.28;2.97;;;;;;;29.61;52.82;100080.81;4448078;32;33278;-81
2023/08/21 07:20:35;;;;;;;6.30;3.15;;;;;;;29.62;51.90;100075.28;4448011;32;34565;-82
2023/08/21 07:23:04;;;;;;;6.20;3.00;;;;;;;29.34;52.69;100077.69;4447520;32;33893;-81
2023/08/21 07:25:33;;;;;;;4.45;2.75;;;;;;;29.53;52.70;100073.44;4446434;32;34026;-81
2023/08/21 07:28:01;;;;;;;3.83;2.45;;;;;;;29.72;53.06;100070.03;4444948;32;33308;-81
2023/08/21 07:30:30;;;;;;;5.65;3.00;;;;;;;29.72;53.56;100070.03;4446989;32;34533;-81
2023/08/21 07:33:06;;;;;;;5.35;2.90;;;;;;;29.78;53.02;100075.69;4447680;32;33713;-80
2023/08/21 07:35:35;;;;;;;5.15;2.80;;;;;;;29.96;52.18;100075.91;4444188;32;33679;-81
2023/08/21 07:38:05;;;;;;;5.00;2.53;;;;;;;30.01;51.98;100070.16;4451969;32;34102;-81
2023/08/21 07:40:34;;;;;;;5.25;2.40;;;;;;;30.08;51.96;100073.97;4445063;32;34390;-81
2023/08/21 07:43:03;;;;;;;5.45;3.22;;;;;;;30.20;51.42;100075.56;4445454;32;33633;-81
2023/08/21 07:45:32;;;;;;;5.47;3.00;;;;;;;30.11;52.27;100079.06;4445811;32;34418;-81
2023/08/21 07:48:04;;;;;;;6.15;2.90;;;;;;;30.04;52.33;100085.94;4445475;32;34175;-82
2023/08/21 07:50:42;;;;;;;;;;;;;;;30.11;52.17;100086.25;4446810;32;34056;-81
2023/08/21 07:53:11;;;;;;;5.93;3.33;;;;;;;30.27;51.18;100085.75;4439289;32;33634;-81
2023/08/21 07:55:39;;;;;;;6.60;3.15;;;;;;;30.42;51.72;100084.34;4443166;32;34100;-81
2023/08/21 07:58:08;;;;;;;5.97;2.90;;;;;;;30.46;51.11;100088.44;4444490;32;33791;-81
2023/08/21 08:00:37;;;;;;;5.10;3.08;;;;;;;30.60;49.93;100082.69;4442956;32;34733;-82
2023/08/21 08:03:08;;;;;;;5.43;3.22;;;;;;;30.22;51.80;100085.28;4451021;32;34184;-81
2023/08/21 08:05:37;;;;;;;;;;;;;;;30.45;51.00;100083.25;4444868;32;200511;-81
2023/08/21 08:08:06;;;;;;;6.35;3.50;;;;;;;30.79;49.87;100083.69;4445370;32;33123;-81
2023/08/21 08:10:35;;;;;;;5.62;2.80;;;;;;;30.89;49.34;100089.94;4445943;32;33614;-82
2023/08/21 08:13:04;;;;;;;5.20;3.15;;;;;;;31.15;48.29;100086.69;4446310;32;33759;-81
2023/08/21 08:15:34;;;;;;;4.43;2.47;;;;;;;31.01;49.08;100082.59;4441491;32;34093;-81
2023/08/21 08:18:03;;;;;;;5.12;2.70;;;;;;;31.34;47.82;100085.75;4445801;32;32584;-81
2023/08/21 08:20:33;;;;;;;6.05;2.92;;;;;;;31.26;48.10;100084.66;4446040;32;34245;-80
2023/08/21 08:23:02;;;;;;;;;;;;;;;31.32;47.87;100083.25;4447998;32;34447;-81
2023/08/21 08:25:31;;;;;;;5.07;2.80;;;;;;;31.32;46.58;100087.78;4445001;32;34682;-82
2023/08/21 08:28:00;;;;;;;5.57;2.97;;;;;;;31.37;46.48;100086.34;4447821;32;33310;-81
2023/08/21 08:30:29;;;;;;;4.93;2.22;;;;;;;31.39;46.81;100087.09;4452542;32;33904;-81
2023/08/21 08:32:58;;;;;;;4.22;2.72;;;;;;;31.38;45.88;100088.03;4435746;32;33428;-81
2023/08/21 08:35:27;;;;;;;5.60;3.12;;;;;;;31.51;44.56;100077.03;4445367;32;34393;-81
2023/08/21 08:37:57;;;;;;;4.00;2.53;;;;;;;31.70;45.13;100077.94;4447884;32;33321;-81
2023/08/21 08:40:26;;;;;;;3.92;2.40;;;;;;;31.75;44.96;100081.88;4442873;32;34617;-81
2023/08/21 08:42:55;;;;;;;4.87;2.60;;;;;;;31.69;45.87;100085.16;4453483;32;33678;-81
2023/08/21 08:45:30;;;;;;;3.40;2.22;;;;;;;31.83;45.75;100086.50;4427086;32;32129;-81
2023/08/21 08:48:00;;;;;;;5.43;2.92;;;;;;;31.91;44.84;100089.28;4447865;32;33261;-81
2023/08/21 08:50:30;;;;;;;5.40;3.20;;;;;;;31.87;45.32;100088.75;4446609;32;34570;-81
2023/08/21 08:53:01;;;;;;;5.10;3.28;;;;;;;31.42;45.06;100088.63;4444110;32;33458;-81
2023/08/21 08:55:44;;;;;;;5.47;2.97;;;;;;;31.57;44.79;100089.00;4444961;32;33672;-81
2023/08/21 08:58:13;;;;;;;4.62;2.58;;;;;;;31.44;45.88;100092.00;4448944;32;33046;-82
2023/08/21 09:00:42;;;;;;;4.97;3.17;;;;;;;31.92;44.34;100093.69;4430061;32;33015;-81
2023/08/21 09:03:12;;;;;;;4.75;2.80;;;;;;;32.23;43.84;100096.91;4446998;32;34139;-81
2023/08/21 09:05:41;;;;;;;4.32;2.72;;;;;;;32.24;43.75;100095.09;4444601;32;33605;-82
2023/08/21 09:08:12;;;;;;;5.35;2.58;;;;;;;32.35;43.50;100094.03;4441635;32;33693;-81
2023/08/21 09:10:42;;;;;;;6.75;2.60;;;;;;;32.26;43.46;100093.94;4448849;32;33872;-80
2023/08/21 09:13:19;;;;;;;14.30;2.33;;;;;;;32.29;44.03;100093.63;4445706;32;33830;-81
2023/08/21 09:15:50;;;;;;;5.85;2.60;;;;;;;32.36;44.95;100093.06;4441444;32;33765;-81
2023/08/21 09:18:21;;;;;;;4.03;2.65;;;;;;;32.51;44.30;100097.75;4445650;32;33862;-81
2023/08/21 09:20:50;;;;;;;4.70;2.60;;;;;;;32.64;42.54;100094.69;4445677;32;33950;-81
2023/08/21 09:23:20;;;;;;;4.45;2.25;;;;;;;32.64;42.90;100096.53;4445267;32;33169;-81
2023/08/21 09:25:49;;;;;;;;;;;;;;;32.70;43.69;100096.78;4451006;32;33809;-81
2023/08/21 09:28:20;;;;;;;3.85;2.50;;;;;;;32.77;43.10;100091.66;4444247;32;32744;-81
2023/08/21 09:30:51;;;;;;;4.87;2.40;;;;;;;32.90;43.33;100092.09;4447021;32;33408;-81
2023/08/21 09:33:20;;;;;;;5.12;2.58;;;;;;;32.92;40.71;100084.72;4444707;32;33648;-81
2023/08/21 09:35:50;;;;;;;4.62;2.65;;;;;;;32.98;40.38;100075.19;4441663;32;34550;-81
2023/08/21 09:38:20;;;;;;;4.00;2.33;;;;;;;33.20;41.68;100076.56;4444632;32;33347;-81
2023/08/21 09:40:54;;;;;;;3.83;2.17;;;;;;;32.70;41.03;100074.44;4450214;32;34012;-81
2023/08/21 09:43:24;;;;;;;5.65;2.40;;;;;;;32.70;42.07;100077.97;4446016;32;33235;-81
2023/08/21 09:45:55;;;;;;;4.80;2.85;;;;;;;32.86;41.21;100077.28;4444211;32;33872;-81
2023/08/21 09:48:26;;;;;;;4.85;2.40;;;;;;;32.79;40.28;100072.66;4441449;32;33439;-81
2023/08/21 09:50:56;;;;;;;5.32;2.47;;;;;;;32.60;40.72;100074.53;4436071;32;33776;-81
2023/08/21 09:53:26;;;;;;;5.62;2.97;;;;;;;32.93;40.24;100069.44;4446239;32;34465;-81
2023/08/21 09:56:05;;;;;;;5.00;2.67;;;;;;;32.80;40.89;100071.69;4448564;32;34754;-81
2023/08/21 09:58:35;;;;;;;5.93;2.50;;;;;;;32.96;40.05;100071.81;4438194;32;32927;-81
2023/08/21 10:01:11;;;;;;;4.30;2.62;;;;;;;33.08;39.34;100067.06;4443099;32;34784;-82
2023/08/21 10:03:41;;;;;;;4.35;2.37;;;;;;;32.93;40.89;100069.44;4440173;32;33870;-81
2023/08/21 10:06:11;;;;;;;5.50;2.78;;;;;;;33.17;39.54;100070.66;4447734;32;33574;-81
2023/08/21 10:08:46;;;;;;;4.20;2.15;;;;;;;33.15;40.77;100060.91;4442672;32;33093;-81
2023/08/21 10:11:15;;;;;;;4.07;2.30;;;;;;;33.28;39.96;100067.72;4446128;32;33550;-80
2023/08/21 10:13:44;;;;;;;3.28;2.10;;;;;;;33.57;38.50;100060.19;4443287;32;34645;-81
2023/08/21 10:16:13;;;;;;;4.60;2.60;;;;;;;33.54;39.44;100051.56;4443493;32;33718;-81
2023/08/21 10:18:45;;;;;;;3.53;1.95;;;;;;;33.64;39.28;100060.41;4443112;32;33986;-81
2023/08/21 10:21:16;;;;;;;4.62;2.67;;;;;;;33.74;38.10;100052.19;4437379;32;34002;-81
2023/08/21 10:23:49;;;;;;;4.05;2.28;;;;;;;33.76;39.16;100048.34;4448277;32;34967;-81
2023/08/21 10:26:20;;;;;;;5.43;2.80;;;;;;;33.86;39.46;100050.06;4443411;32;33784;-81
2023/08/21 10:28:51;;;;;;;4.28;2.45;;;;;;;33.93;37.84;100051.09;4441467;32;33026;-81
2023/08/21 10:31:28;;;;;;;4.28;2.53;;;;;;;33.90;37.05;100046.91;4438135;32;32982;-81
2023/08/21 10:33:58;;;;;;;6.97;2.35;;;;;;;33.46;37.79;100044.28;4430784;32;34841;-81
2023/08/21 10:37:09;;;;;;;4.75;2.50;;;;;;;33.77;38.36;100044.63;4446076;32;33006;-81
2023/08/21 10:39:42;;;;;;;4.80;2.78;;;;;;;33.81;36.65;100045.16;4446285;32;33400;-81
2023/08/21 10:42:13;;;;;;;4.35;2.30;;;;;;;33.45;37.56;100042.59;4450736;32;34676;-81
2023/08/21 10:44:55;;;;;;;4.80;2.40;;;;;;;33.45;38.36;100042.59;4444236;32;33951;-81
2023/08/21 10:47:32;;;;;;;4.07;2.22;;;;;;;33.90;37.22;100036.13;4431853;32;33986;-81
2023/08/21 10:50:03;;;;;;;3.22;1.75;;;;;;;34.00;37.53;100033.31;4444991;32;33522;-81
2023/08/21 10:52:37;;;;;;;4.60;2.17;;;;;;;33.74;39.03;100039.59;4442172;32;34505;-81
2023/08/21 10:55:09;;;;;;;4.85;2.17;;;;;;;33.93;38.59;100038.47;4441560;32;35435;-81
2023/08/21 10:57:40;;;;;;;4.30;2.42;;;;;;;33.99;36.95;100035.12;4451546;32;33795;-81
2023/08/21 11:00:11;;;;;;;4.37;2.40;;;;;;;34.11;37.24;100033.00;4445890;32;32468;-81
2023/08/21 11:02:41;;;;;;;3.72;1.90;;;;;;;34.22;38.36;100039.94;4434164;32;34645;-81
2023/08/21 11:05:11;;;;;;;3.62;2.12;;;;;;;34.34;39.17;100037.78;4438207;32;34444;-81
2023/08/21 11:07:43;;;;;;;4.07;2.15;;;;;;;34.30;38.63;100033.72;4434727;32;35374;-81
2023/08/21 11:10:16;;;;;;;3.85;1.98;;;;;;;34.23;36.80;100036.22;4439968;32;33490;-81
2023/08/21 11:12:50;;;;;;;4.32;2.40;;;;;;;34.42;36.32;100027.00;4432976;32;34030;-81
2023/08/21 11:15:20;;;;;;;5.00;2.85;;;;;;;34.53;36.52;100031.22;4435603;32;33406;-81
2023/08/21 11:17:53;;;;;;;3.78;2.05;;;;;;;34.60;35.52;100021.50;4439704;32;34110;-81
2023/08/21 11:20:22;;;;;;;4.35;2.00;;;;;;;34.63;35.38;100027.41;4438257;32;33284;-81
2023/08/21 11:22:57;;;;;;;3.33;1.90;;;;;;;34.84;35.36;100024.22;4437881;32;33684;-81
2023/08/21 11:25:27;;;;;;;3.47;2.08;;;;;;;34.76;35.58;100012.56;4442757;32;34007;-81
2023/08/21 11:27:56;;;;;;;4.45;2.60;;;;;;;34.80;36.00;100017.47;4435678;32;33869;-81
2023/08/21 11:30:26;;;;;;;3.08;1.85;;;;;;;34.92;35.93;100015.28;4440586;32;33217;-81
2023/08/21 11:33:13;;;;;;;4.10;2.25;;;;;;;35.05;34.57;100017.44;4441010;32;33573;-80
2023/08/21 11:35:42;;;;;;;4.62;2.58;;;;;;;35.42;34.29;100013.31;4440728;32;34664;-81
2023/08/21 11:38:16;;;;;;;4.45;2.37;;;;;;;34.97;34.93;100009.38;4439063;32;34140;-80
2023/08/21 11:40:56;;;;;;;4.47;2.33;;;;;;;35.44;33.81;100008.59;4447648;32;32499;-81
2023/08/21 11:43:36;;;;;;;4.55;2.78;;;;;;;35.28;35.23;100005.94;4446405;32;33496;-81